sensor_id;sensor_type;location;lat;lon;timestamp;P1;durP1;ratioP1;P2;durP2;ratioP2
10565;SDS011;5331;48.148;16.326;2023-01-15T00:01:20;6.77;;;5.97;;
10565;SDS011;5331;48.148;16.326;2023-01-15T00:03:50;5.83;;;5.30;;
10565;SDS011;5331;48.148;16.326;2023-01-15T00:06:18;5.87;;;5.27;;
10565;SDS011;5331;48.148;16.326;2023-01-15T00:08:46;5.67;;;4.90;;
10565;SDS011;5331;48.148;16.326;2023-01-15T00:11:13;6.17;;;5.30;;
10565;SDS011;5331;48.148;16.326;2023-01-15T00:13:41;7.30;;;5.27;;
10565;SDS011;5331;48.148;16.326;2023-01-15T00:16:09;7.67;;;5.60;;
10565;SDS011;5331;48.148;16.326;2023-01-15T00:18:37;7.33;;;5.23;;
10565;SDS011;5331;48.148;16.326;2023-01-15T00:21:06;6.73;;;5.83;;
10565;SDS011;5331;48.148;16.326;2023-01-15T00:23:36;7.07;;;5.50;;
10565;SDS011;5331;48.148;16.326;2023-01-15T00:26:21;6.83;;;5.27;;
10565;SDS011;5331;48.148;16.326;2023-01-15T00:29:10;6.87;;;5.50;;
10565;SDS011;5331;48.148;16.326;2023-01-15T00:31:37;6.50;;;5.80;;
10565;SDS011;5331;48.148;16.326;2023-01-15T00:34:04;7.03;;;5.40;;
10565;SDS011;5331;48.148;16.326;2023-01-15T00:36:32;7.10;;;5.50;;
10565;SDS011;5331;48.148;16.326;2023-01-15T00:39:01;6.53;;;5.87;;
10565;SDS011;5331;48.148;16.326;2023-01-15T00:41:29;6.27;;;5.37;;
10565;SDS011;5331;48.148;16.326;2023-01-15T00:43:56;7.23;;;5.30;;
10565;SDS011;5331;48.148;16.326;2023-01-15T00:46:23;6.03;;;5.00;;
10565;SDS011;5331;48.148;16.326;2023-01-15T00:48:50;6.60;;;5.40;;
10565;SDS011;5331;48.148;16.326;2023-01-15T00:51:16;6.80;;;5.63;;
10565;SDS011;5331;48.148;16.326;2023-01-15T00:53:45;6.87;;;5.50;;
10565;SDS011;5331;48.148;16.326;2023-01-15T00:56:12;6.57;;;5.40;;
10565;SDS011;5331;48.148;16.326;2023-01-15T00:58:39;7.80;;;5.80;;
10565;SDS011;5331;48.148;16.326;2023-01-15T01:01:06;6.27;;;5.57;;
10565;SDS011;5331;48.148;16.326;2023-01-15T01:03:33;5.73;;;5.17;;
10565;SDS011;5331;48.148;16.326;2023-01-15T01:06:01;7.57;;;6.20;;
10565;SDS011;5331;48.148;16.326;2023-01-15T01:08:28;7.73;;;6.00;;
10565;SDS011;5331;48.148;16.326;2023-01-15T01:11:04;9.40;;;6.43;;
10565;SDS011;5331;48.148;16.326;2023-01-15T01:13:32;7.57;;;6.30;;
10565;SDS011;5331;48.148;16.326;2023-01-15T01:15:59;7.90;;;6.60;;
10565;SDS011;5331;48.148;16.326;2023-01-15T01:18:27;8.27;;;6.10;;
10565;SDS011;5331;48.148;16.326;2023-01-15T01:20:54;10.53;;;6.53;;
10565;SDS011;5331;48.148;16.326;2023-01-15T01:23:21;9.13;;;6.83;;
10565;SDS011;5331;48.148;16.326;2023-01-15T01:25:49;8.27;;;5.87;;
10565;SDS011;5331;48.148;16.326;2023-01-15T01:28:18;8.37;;;6.03;;
10565;SDS011;5331;48.148;16.326;2023-01-15T01:30:45;8.43;;;6.33;;
10565;SDS011;5331;48.148;16.326;2023-01-15T01:33:11;6.67;;;5.97;;
10565;SDS011;5331;48.148;16.326;2023-01-15T01:35:38;7.77;;;6.33;;
10565;SDS011;5331;48.148;16.326;2023-01-15T01:38:06;7.20;;;5.77;;
10565;SDS011;5331;48.148;16.326;2023-01-15T01:40:33;7.80;;;5.93;;
10565;SDS011;5331;48.148;16.326;2023-01-15T01:43:00;6.77;;;6.03;;
10565;SDS011;5331;48.148;16.326;2023-01-15T01:45:30;7.57;;;5.90;;
10565;SDS011;5331;48.148;16.326;2023-01-15T01:47:59;6.40;;;5.70;;
10565;SDS011;5331;48.148;16.326;2023-01-15T01:50:30;6.37;;;5.70;;
10565;SDS011;5331;48.148;16.326;2023-01-15T01:53:00;7.20;;;5.97;;
10565;SDS011;5331;48.148;16.326;2023-01-15T01:55:33;7.60;;;5.73;;
10565;SDS011;5331;48.148;16.326;2023-01-15T01:58:01;8.07;;;5.83;;
10565;SDS011;5331;48.148;16.326;2023-01-15T02:00:35;7.93;;;5.63;;
10565;SDS011;5331;48.148;16.326;2023-01-15T02:03:06;6.80;;;5.27;;
10565;SDS011;5331;48.148;16.326;2023-01-15T02:05:36;6.07;;;5.43;;
10565;SDS011;5331;48.148;16.326;2023-01-15T02:08:05;6.43;;;5.73;;
10565;SDS011;5331;48.148;16.326;2023-01-15T02:10:32;6.97;;;5.87;;
10565;SDS011;5331;48.148;16.326;2023-01-15T02:13:01;7.30;;;5.57;;
10565;SDS011;5331;48.148;16.326;2023-01-15T02:15:33;6.37;;;5.70;;
10565;SDS011;5331;48.148;16.326;2023-01-15T02:18:05;7.87;;;5.90;;
10565;SDS011;5331;48.148;16.326;2023-01-15T02:20:38;8.10;;;5.80;;
10565;SDS011;5331;48.148;16.326;2023-01-15T02:26:25;7.23;;;5.77;;
10565;SDS011;5331;48.148;16.326;2023-01-15T02:29:17;6.70;;;5.40;;
10565;SDS011;5331;48.148;16.326;2023-01-15T02:31:52;7.67;;;5.77;;
10565;SDS011;5331;48.148;16.326;2023-01-15T02:34:20;6.73;;;5.53;;
10565;SDS011;5331;48.148;16.326;2023-01-15T02:36:53;8.73;;;6.20;;
10565;SDS011;5331;48.148;16.326;2023-01-15T02:39:30;6.30;;;5.70;;
10565;SDS011;5331;48.148;16.326;2023-01-15T02:42:00;6.57;;;5.10;;
10565;SDS011;5331;48.148;16.326;2023-01-15T02:44:32;7.23;;;5.20;;
10565;SDS011;5331;48.148;16.326;2023-01-15T02:47:03;7.57;;;5.70;;
10565;SDS011;5331;48.148;16.326;2023-01-15T02:49:32;8.03;;;6.33;;
10565;SDS011;5331;48.148;16.326;2023-01-15T02:52:02;6.17;;;5.30;;
10565;SDS011;5331;48.148;16.326;2023-01-15T02:54:34;6.43;;;5.83;;
10565;SDS011;5331;48.148;16.326;2023-01-15T02:57:17;6.10;;;5.50;;
10565;SDS011;5331;48.148;16.326;2023-01-15T02:59:48;7.57;;;5.40;;
10565;SDS011;5331;48.148;16.326;2023-01-15T03:02:18;7.30;;;5.30;;
10565;SDS011;5331;48.148;16.326;2023-01-15T03:04:48;6.33;;;5.50;;
10565;SDS011;5331;48.148;16.326;2023-01-15T03:07:20;7.40;;;5.33;;
10565;SDS011;5331;48.148;16.326;2023-01-15T03:09:50;6.50;;;5.23;;
10565;SDS011;5331;48.148;16.326;2023-01-15T03:12:19;6.70;;;5.20;;
10565;SDS011;5331;48.148;16.326;2023-01-15T03:14:55;6.60;;;5.77;;
10565;SDS011;5331;48.148;16.326;2023-01-15T03:17:32;7.23;;;5.57;;
10565;SDS011;5331;48.148;16.326;2023-01-15T03:20:03;7.17;;;5.73;;
10565;SDS011;5331;48.148;16.326;2023-01-15T03:22:35;6.43;;;5.40;;
10565;SDS011;5331;48.148;16.326;2023-01-15T03:25:07;6.73;;;5.70;;
10565;SDS011;5331;48.148;16.326;2023-01-15T03:27:36;6.03;;;5.43;;
10565;SDS011;5331;48.148;16.326;2023-01-15T03:30:06;6.10;;;4.63;;
10565;SDS011;5331;48.148;16.326;2023-01-15T03:32:37;5.93;;;5.33;;
10565;SDS011;5331;48.148;16.326;2023-01-15T03:35:04;7.00;;;5.27;;
10565;SDS011;5331;48.148;16.326;2023-01-15T03:37:35;6.77;;;5.40;;
10565;SDS011;5331;48.148;16.326;2023-01-15T03:40:02;5.67;;;5.10;;
10565;SDS011;5331;48.148;16.326;2023-01-15T03:42:40;5.13;;;4.73;;
10565;SDS011;5331;48.148;16.326;2023-01-15T03:45:16;6.27;;;4.77;;
10565;SDS011;5331;48.148;16.326;2023-01-15T03:47:53;5.03;;;4.53;;
10565;SDS011;5331;48.148;16.326;2023-01-15T03:50:26;6.43;;;5.17;;
10565;SDS011;5331;48.148;16.326;2023-01-15T03:53:03;5.10;;;4.60;;
10565;SDS011;5331;48.148;16.326;2023-01-15T03:55:38;5.80;;;4.40;;
10565;SDS011;5331;48.148;16.326;2023-01-15T03:58:10;5.33;;;4.83;;
10565;SDS011;5331;48.148;16.326;2023-01-15T04:00:45;5.60;;;5.00;;
10565;SDS011;5331;48.148;16.326;2023-01-15T04:03:14;6.20;;;5.00;;
10565;SDS011;5331;48.148;16.326;2023-01-15T04:05:43;5.70;;;5.00;;
10565;SDS011;5331;48.148;16.326;2023-01-15T04:08:11;7.30;;;5.33;;
10565;SDS011;5331;48.148;16.326;2023-01-15T04:10:49;6.17;;;5.00;;
10565;SDS011;5331;48.148;16.326;2023-01-15T04:13:16;6.83;;;5.00;;
10565;SDS011;5331;48.148;16.326;2023-01-15T04:15:44;5.87;;;5.27;;
10565;SDS011;5331;48.148;16.326;2023-01-15T04:18:11;6.23;;;4.80;;
10565;SDS011;5331;48.148;16.326;2023-01-15T04:20:40;7.13;;;5.07;;
10565;SDS011;5331;48.148;16.326;2023-01-15T04:23:07;6.03;;;5.00;;
10565;SDS011;5331;48.148;16.326;2023-01-15T04:25:34;5.50;;;5.00;;
10565;SDS011;5331;48.148;16.326;2023-01-15T04:28:01;5.07;;;4.50;;
10565;SDS011;5331;48.148;16.326;2023-01-15T04:30:28;5.80;;;4.93;;
10565;SDS011;5331;48.148;16.326;2023-01-15T04:32:57;4.97;;;4.47;;
10565;SDS011;5331;48.148;16.326;2023-01-15T04:35:24;5.50;;;4.80;;
10565;SDS011;5331;48.148;16.326;2023-01-15T04:37:53;5.57;;;4.87;;
10565;SDS011;5331;48.148;16.326;2023-01-15T04:40:20;6.10;;;4.63;;
10565;SDS011;5331;48.148;16.326;2023-01-15T04:43:04;5.33;;;4.50;;
10565;SDS011;5331;48.148;16.326;2023-01-15T04:45:49;6.20;;;4.60;;
10565;SDS011;5331;48.148;16.326;2023-01-15T04:48:17;5.27;;;4.33;;
10565;SDS011;5331;48.148;16.326;2023-01-15T04:50:44;6.03;;;4.33;;
10565;SDS011;5331;48.148;16.326;2023-01-15T04:53:11;5.27;;;4.63;;
10565;SDS011;5331;48.148;16.326;2023-01-15T04:55:38;5.27;;;4.37;;
10565;SDS011;5331;48.148;16.326;2023-01-15T04:58:04;6.07;;;4.37;;
10565;SDS011;5331;48.148;16.326;2023-01-15T05:00:32;5.63;;;4.40;;
10565;SDS011;5331;48.148;16.326;2023-01-15T05:02:59;4.93;;;4.40;;
10565;SDS011;5331;48.148;16.326;2023-01-15T05:05:27;4.57;;;4.07;;
10565;SDS011;5331;48.148;16.326;2023-01-15T05:07:56;7.07;;;4.87;;
10565;SDS011;5331;48.148;16.326;2023-01-15T05:10:23;5.23;;;4.50;;
10565;SDS011;5331;48.148;16.326;2023-01-15T05:12:50;4.93;;;4.43;;
10565;SDS011;5331;48.148;16.326;2023-01-15T05:15:17;6.03;;;4.27;;
10565;SDS011;5331;48.148;16.326;2023-01-15T05:17:44;5.60;;;4.67;;
10565;SDS011;5331;48.148;16.326;2023-01-15T05:20:11;5.00;;;4.50;;
10565;SDS011;5331;48.148;16.326;2023-01-15T05:22:40;4.83;;;4.40;;
10565;SDS011;5331;48.148;16.326;2023-01-15T05:25:07;5.40;;;4.23;;
10565;SDS011;5331;48.148;16.326;2023-01-15T05:27:34;4.67;;;4.17;;
10565;SDS011;5331;48.148;16.326;2023-01-15T05:30:01;6.23;;;5.20;;
10565;SDS011;5331;48.148;16.326;2023-01-15T05:32:29;5.63;;;4.87;;
10565;SDS011;5331;48.148;16.326;2023-01-15T05:34:56;3.90;;;3.50;;
10565;SDS011;5331;48.148;16.326;2023-01-15T05:37:23;5.33;;;4.20;;
10565;SDS011;5331;48.148;16.326;2023-01-15T05:39:52;4.10;;;3.70;;
10565;SDS011;5331;48.148;16.326;2023-01-15T05:42:19;4.63;;;4.10;;
10565;SDS011;5331;48.148;16.326;2023-01-15T05:44:46;4.50;;;4.10;;
10565;SDS011;5331;48.148;16.326;2023-01-15T05:47:13;4.67;;;4.13;;
10565;SDS011;5331;48.148;16.326;2023-01-15T05:49:40;4.03;;;3.63;;
10565;SDS011;5331;48.148;16.326;2023-01-15T05:52:07;4.67;;;4.10;;
10565;SDS011;5331;48.148;16.326;2023-01-15T05:54:34;4.80;;;4.20;;
10565;SDS011;5331;48.148;16.326;2023-01-15T05:57:03;5.93;;;4.00;;
10565;SDS011;5331;48.148;16.326;2023-01-15T05:59:30;4.50;;;4.10;;
10565;SDS011;5331;48.148;16.326;2023-01-15T06:01:58;4.60;;;4.17;;
10565;SDS011;5331;48.148;16.326;2023-01-15T06:04:25;4.57;;;4.07;;
10565;SDS011;5331;48.148;16.326;2023-01-15T06:06:53;5.10;;;4.60;;
10565;SDS011;5331;48.148;16.326;2023-01-15T06:09:21;5.50;;;4.60;;
10565;SDS011;5331;48.148;16.326;2023-01-15T06:11:48;4.53;;;4.13;;
10565;SDS011;5331;48.148;16.326;2023-01-15T06:14:16;6.00;;;3.80;;
10565;SDS011;5331;48.148;16.326;2023-01-15T06:16:43;4.23;;;3.60;;
10565;SDS011;5331;48.148;16.326;2023-01-15T06:19:11;4.27;;;3.83;;
10565;SDS011;5331;48.148;16.326;2023-01-15T06:21:38;4.13;;;3.60;;
10565;SDS011;5331;48.148;16.326;2023-01-15T06:24:06;4.27;;;3.87;;
10565;SDS011;5331;48.148;16.326;2023-01-15T06:26:33;4.23;;;3.83;;
10565;SDS011;5331;48.148;16.326;2023-01-15T06:29:00;4.27;;;3.87;;
10565;SDS011;5331;48.148;16.326;2023-01-15T06:31:28;5.17;;;4.07;;
10565;SDS011;5331;48.148;16.326;2023-01-15T06:33:56;5.17;;;3.83;;
10565;SDS011;5331;48.148;16.326;2023-01-15T06:36:24;4.50;;;3.90;;
10565;SDS011;5331;48.148;16.326;2023-01-15T06:38:51;4.07;;;3.67;;
10565;SDS011;5331;48.148;16.326;2023-01-15T06:41:19;5.07;;;4.07;;
10565;SDS011;5331;48.148;16.326;2023-01-15T06:44:04;5.10;;;4.00;;
10565;SDS011;5331;48.148;16.326;2023-01-15T06:46:50;4.20;;;3.90;;
10565;SDS011;5331;48.148;16.326;2023-01-15T06:49:35;4.47;;;4.07;;
10565;SDS011;5331;48.148;16.326;2023-01-15T06:52:04;5.47;;;4.00;;
10565;SDS011;5331;48.148;16.326;2023-01-15T06:54:32;4.40;;;3.90;;
10565;SDS011;5331;48.148;16.326;2023-01-15T06:57:00;5.07;;;3.97;;
10565;SDS011;5331;48.148;16.326;2023-01-15T06:59:27;4.67;;;4.03;;
10565;SDS011;5331;48.148;16.326;2023-01-15T07:01:55;4.17;;;3.77;;
10565;SDS011;5331;48.148;16.326;2023-01-15T07:04:22;5.10;;;3.90;;
10565;SDS011;5331;48.148;16.326;2023-01-15T07:06:50;5.60;;;4.23;;
10565;SDS011;5331;48.148;16.326;2023-01-15T07:09:17;4.53;;;4.00;;
10565;SDS011;5331;48.148;16.326;2023-01-15T07:11:44;4.93;;;4.13;;
10565;SDS011;5331;48.148;16.326;2023-01-15T07:14:17;6.07;;;4.23;;
10565;SDS011;5331;48.148;16.326;2023-01-15T07:16:44;4.67;;;4.00;;
10565;SDS011;5331;48.148;16.326;2023-01-15T07:19:13;5.33;;;4.07;;
10565;SDS011;5331;48.148;16.326;2023-01-15T07:21:40;4.77;;;4.07;;
10565;SDS011;5331;48.148;16.326;2023-01-15T07:24:08;5.53;;;4.03;;
10565;SDS011;5331;48.148;16.326;2023-01-15T07:26:35;5.07;;;4.40;;
10565;SDS011;5331;48.148;16.326;2023-01-15T07:29:03;5.60;;;4.20;;
10565;SDS011;5331;48.148;16.326;2023-01-15T07:31:30;7.17;;;4.73;;
10565;SDS011;5331;48.148;16.326;2023-01-15T07:33:57;4.93;;;4.23;;
10565;SDS011;5331;48.148;16.326;2023-01-15T07:36:25;4.50;;;4.10;;
10565;SDS011;5331;48.148;16.326;2023-01-15T07:38:52;5.70;;;4.60;;
10565;SDS011;5331;48.148;16.326;2023-01-15T07:41:19;5.33;;;4.20;;
10565;SDS011;5331;48.148;16.326;2023-01-15T07:44:04;6.20;;;4.40;;
10565;SDS011;5331;48.148;16.326;2023-01-15T07:46:48;5.03;;;4.40;;
10565;SDS011;5331;48.148;16.326;2023-01-15T07:49:32;4.90;;;4.33;;
10565;SDS011;5331;48.148;16.326;2023-01-15T07:52:14;4.57;;;4.17;;
10565;SDS011;5331;48.148;16.326;2023-01-15T07:54:42;4.77;;;4.37;;
10565;SDS011;5331;48.148;16.326;2023-01-15T07:57:10;5.20;;;4.00;;
10565;SDS011;5331;48.148;16.326;2023-01-15T07:59:38;5.47;;;4.30;;
10565;SDS011;5331;48.148;16.326;2023-01-15T08:02:05;7.23;;;4.70;;
10565;SDS011;5331;48.148;16.326;2023-01-15T08:04:32;6.33;;;4.23;;
10565;SDS011;5331;48.148;16.326;2023-01-15T08:06:59;5.43;;;4.30;;
10565;SDS011;5331;48.148;16.326;2023-01-15T08:09:28;6.67;;;5.27;;
10565;SDS011;5331;48.148;16.326;2023-01-15T08:11:57;6.27;;;5.00;;
10565;SDS011;5331;48.148;16.326;2023-01-15T08:14:42;5.70;;;5.20;;
10565;SDS011;5331;48.148;16.326;2023-01-15T08:17:26;5.93;;;4.67;;
10565;SDS011;5331;48.148;16.326;2023-01-15T08:19:53;6.67;;;4.50;;
10565;SDS011;5331;48.148;16.326;2023-01-15T08:22:20;7.77;;;4.73;;
10565;SDS011;5331;48.148;16.326;2023-01-15T08:24:49;5.40;;;4.43;;
10565;SDS011;5331;48.148;16.326;2023-01-15T08:27:16;5.83;;;4.77;;
10565;SDS011;5331;48.148;16.326;2023-01-15T08:29:43;5.93;;;4.90;;
10565;SDS011;5331;48.148;16.326;2023-01-15T08:32:10;6.20;;;5.00;;
10565;SDS011;5331;48.148;16.326;2023-01-15T08:34:37;5.57;;;4.90;;
10565;SDS011;5331;48.148;16.326;2023-01-15T08:37:04;6.20;;;4.83;;
10565;SDS011;5331;48.148;16.326;2023-01-15T08:39:31;6.00;;;4.70;;
10565;SDS011;5331;48.148;16.326;2023-01-15T08:42:00;5.63;;;4.57;;
10565;SDS011;5331;48.148;16.326;2023-01-15T08:44:27;6.77;;;4.93;;
10565;SDS011;5331;48.148;16.326;2023-01-15T08:46:54;5.17;;;4.70;;
10565;SDS011;5331;48.148;16.326;2023-01-15T08:49:21;5.57;;;4.90;;
10565;SDS011;5331;48.148;16.326;2023-01-15T08:51:48;6.73;;;5.27;;
10565;SDS011;5331;48.148;16.326;2023-01-15T08:54:16;5.70;;;4.70;;
10565;SDS011;5331;48.148;16.326;2023-01-15T08:56:44;6.17;;;4.47;;
10565;SDS011;5331;48.148;16.326;2023-01-15T08:59:13;4.70;;;4.30;;
10565;SDS011;5331;48.148;16.326;2023-01-15T09:01:40;6.60;;;4.63;;
10565;SDS011;5331;48.148;16.326;2023-01-15T09:04:08;5.67;;;4.20;;
10565;SDS011;5331;48.148;16.326;2023-01-15T09:06:39;4.80;;;4.40;;
10565;SDS011;5331;48.148;16.326;2023-01-15T09:09:06;5.63;;;4.77;;
10565;SDS011;5331;48.148;16.326;2023-01-15T09:11:33;6.90;;;5.00;;
10565;SDS011;5331;48.148;16.326;2023-01-15T09:14:01;6.27;;;4.70;;
10565;SDS011;5331;48.148;16.326;2023-01-15T09:16:29;4.97;;;4.47;;
10565;SDS011;5331;48.148;16.326;2023-01-15T09:18:56;4.90;;;4.40;;
10565;SDS011;5331;48.148;16.326;2023-01-15T09:21:23;4.97;;;4.47;;
10565;SDS011;5331;48.148;16.326;2023-01-15T09:23:50;4.50;;;4.10;;
10565;SDS011;5331;48.148;16.326;2023-01-15T09:26:24;4.43;;;4.03;;
10565;SDS011;5331;48.148;16.326;2023-01-15T09:28:53;5.00;;;4.50;;
10565;SDS011;5331;48.148;16.326;2023-01-15T09:31:20;5.47;;;4.50;;
10565;SDS011;5331;48.148;16.326;2023-01-15T09:33:49;5.30;;;4.60;;
10565;SDS011;5331;48.148;16.326;2023-01-15T09:36:16;5.63;;;4.97;;
10565;SDS011;5331;48.148;16.326;2023-01-15T09:38:45;5.93;;;5.10;;
10565;SDS011;5331;48.148;16.326;2023-01-15T09:41:12;4.57;;;4.17;;
10565;SDS011;5331;48.148;16.326;2023-01-15T09:43:55;5.17;;;4.47;;
10565;SDS011;5331;48.148;16.326;2023-01-15T09:46:28;5.50;;;4.73;;
10565;SDS011;5331;48.148;16.326;2023-01-15T09:49:04;5.87;;;4.37;;
10565;SDS011;5331;48.148;16.326;2023-01-15T09:51:41;4.80;;;4.30;;
10565;SDS011;5331;48.148;16.326;2023-01-15T09:54:19;5.63;;;4.43;;
10565;SDS011;5331;48.148;16.326;2023-01-15T09:56:54;5.20;;;4.70;;
10565;SDS011;5331;48.148;16.326;2023-01-15T09:59:25;4.97;;;4.47;;
10565;SDS011;5331;48.148;16.326;2023-01-15T10:01:57;4.57;;;4.17;;
10565;SDS011;5331;48.148;16.326;2023-01-15T10:04:30;6.40;;;4.20;;
10565;SDS011;5331;48.148;16.326;2023-01-15T10:07:05;6.30;;;4.80;;
10565;SDS011;5331;48.148;16.326;2023-01-15T10:09:38;7.43;;;5.00;;
10565;SDS011;5331;48.148;16.326;2023-01-15T10:12:11;5.57;;;4.33;;
10565;SDS011;5331;48.148;16.326;2023-01-15T10:15:03;7.53;;;4.90;;
10565;SDS011;5331;48.148;16.326;2023-01-15T10:17:54;6.43;;;5.07;;
10565;SDS011;5331;48.148;16.326;2023-01-15T10:20:32;5.43;;;4.70;;
10565;SDS011;5331;48.148;16.326;2023-01-15T10:23:15;6.57;;;5.00;;
10565;SDS011;5331;48.148;16.326;2023-01-15T10:25:53;5.73;;;4.60;;
10565;SDS011;5331;48.148;16.326;2023-01-15T10:28:27;5.17;;;4.67;;
10565;SDS011;5331;48.148;16.326;2023-01-15T10:30:56;5.67;;;4.70;;
10565;SDS011;5331;48.148;16.326;2023-01-15T10:33:37;4.70;;;4.23;;
10565;SDS011;5331;48.148;16.326;2023-01-15T10:36:18;4.93;;;4.43;;
10565;SDS011;5331;48.148;16.326;2023-01-15T10:38:51;6.07;;;4.70;;
10565;SDS011;5331;48.148;16.326;2023-01-15T10:41:34;8.10;;;6.10;;
10565;SDS011;5331;48.148;16.326;2023-01-15T10:44:14;5.00;;;4.47;;
10565;SDS011;5331;48.148;16.326;2023-01-15T10:46:47;5.00;;;4.50;;
10565;SDS011;5331;48.148;16.326;2023-01-15T10:49:18;5.63;;;4.80;;
10565;SDS011;5331;48.148;16.326;2023-01-15T10:51:48;5.47;;;4.97;;
10565;SDS011;5331;48.148;16.326;2023-01-15T10:54:22;4.63;;;4.03;;
10565;SDS011;5331;48.148;16.326;2023-01-15T10:56:55;5.93;;;4.80;;
10565;SDS011;5331;48.148;16.326;2023-01-15T10:59:31;4.77;;;4.17;;
10565;SDS011;5331;48.148;16.326;2023-01-15T11:02:06;4.73;;;4.23;;
10565;SDS011;5331;48.148;16.326;2023-01-15T11:04:46;6.03;;;4.77;;
10565;SDS011;5331;48.148;16.326;2023-01-15T11:07:15;5.77;;;4.90;;
10565;SDS011;5331;48.148;16.326;2023-01-15T11:09:43;6.13;;;5.00;;
10565;SDS011;5331;48.148;16.326;2023-01-15T11:12:17;6.57;;;5.13;;
10565;SDS011;5331;48.148;16.326;2023-01-15T11:15:14;7.53;;;5.00;;
10565;SDS011;5331;48.148;16.326;2023-01-15T11:18:00;6.87;;;4.83;;
10565;SDS011;5331;48.148;16.326;2023-01-15T11:20:46;5.13;;;4.63;;
10565;SDS011;5331;48.148;16.326;2023-01-15T11:23:16;7.30;;;5.23;;
10565;SDS011;5331;48.148;16.326;2023-01-15T11:25:48;5.97;;;4.87;;
10565;SDS011;5331;48.148;16.326;2023-01-15T11:28:17;5.40;;;4.90;;
10565;SDS011;5331;48.148;16.326;2023-01-15T11:30:55;7.20;;;5.43;;
10565;SDS011;5331;48.148;16.326;2023-01-15T11:33:24;6.37;;;5.37;;
10565;SDS011;5331;48.148;16.326;2023-01-15T11:35:53;5.30;;;4.50;;
10565;SDS011;5331;48.148;16.326;2023-01-15T11:38:24;5.27;;;4.80;;
10565;SDS011;5331;48.148;16.326;2023-01-15T11:40:52;5.50;;;4.90;;
10565;SDS011;5331;48.148;16.326;2023-01-15T11:43:21;5.53;;;4.70;;
10565;SDS011;5331;48.148;16.326;2023-01-15T11:46:21;7.03;;;5.30;;
10565;SDS011;5331;48.148;16.326;2023-01-15T11:49:07;7.30;;;5.90;;
10565;SDS011;5331;48.148;16.326;2023-01-15T11:51:52;8.27;;;6.03;;
10565;SDS011;5331;48.148;16.326;2023-01-15T11:54:23;7.70;;;5.17;;
10565;SDS011;5331;48.148;16.326;2023-01-15T11:56:51;5.90;;;5.30;;
10565;SDS011;5331;48.148;16.326;2023-01-15T11:59:20;6.07;;;5.37;;
10565;SDS011;5331;48.148;16.326;2023-01-15T12:01:48;6.20;;;5.60;;
10565;SDS011;5331;48.148;16.326;2023-01-15T12:04:25;5.80;;;5.10;;
10565;SDS011;5331;48.148;16.326;2023-01-15T12:06:59;5.70;;;5.20;;
10565;SDS011;5331;48.148;16.326;2023-01-15T12:09:33;5.57;;;4.90;;
10565;SDS011;5331;48.148;16.326;2023-01-15T12:12:11;8.00;;;5.33;;
10565;SDS011;5331;48.148;16.326;2023-01-15T12:18:11;7.10;;;5.50;;
10565;SDS011;5331;48.148;16.326;2023-01-15T12:21:02;7.00;;;5.67;;
10565;SDS011;5331;48.148;16.326;2023-01-15T12:23:43;7.10;;;5.57;;
10565;SDS011;5331;48.148;16.326;2023-01-15T12:26:23;6.63;;;5.00;;
10565;SDS011;5331;48.148;16.326;2023-01-15T12:28:56;7.17;;;5.20;;
10565;SDS011;5331;48.148;16.326;2023-01-15T12:31:30;7.90;;;6.30;;
10565;SDS011;5331;48.148;16.326;2023-01-15T12:34:04;8.27;;;6.00;;
10565;SDS011;5331;48.148;16.326;2023-01-15T12:36:43;6.10;;;5.40;;
10565;SDS011;5331;48.148;16.326;2023-01-15T12:39:13;6.80;;;5.53;;
10565;SDS011;5331;48.148;16.326;2023-01-15T12:41:46;8.37;;;6.43;;
10565;SDS011;5331;48.148;16.326;2023-01-15T12:44:37;6.57;;;5.87;;
10565;SDS011;5331;48.148;16.326;2023-01-15T12:47:25;7.07;;;5.70;;
10565;SDS011;5331;48.148;16.326;2023-01-15T12:49:56;6.80;;;5.60;;
10565;SDS011;5331;48.148;16.326;2023-01-15T12:52:28;9.80;;;6.40;;
10565;SDS011;5331;48.148;16.326;2023-01-15T12:55:03;7.13;;;6.37;;
10565;SDS011;5331;48.148;16.326;2023-01-15T12:57:41;8.27;;;6.10;;
10565;SDS011;5331;48.148;16.326;2023-01-15T13:00:12;7.60;;;5.73;;
10565;SDS011;5331;48.148;16.326;2023-01-15T13:02:49;6.27;;;5.40;;
10565;SDS011;5331;48.148;16.326;2023-01-15T13:05:30;6.00;;;5.40;;
10565;SDS011;5331;48.148;16.326;2023-01-15T13:08:03;8.67;;;6.17;;
10565;SDS011;5331;48.148;16.326;2023-01-15T13:10:35;8.17;;;6.50;;
10565;SDS011;5331;48.148;16.326;2023-01-15T13:13:12;7.17;;;6.27;;
10565;SDS011;5331;48.148;16.326;2023-01-15T13:15:44;7.33;;;6.40;;
10565;SDS011;5331;48.148;16.326;2023-01-15T13:18:24;9.63;;;6.57;;
10565;SDS011;5331;48.148;16.326;2023-01-15T13:20:57;8.43;;;6.63;;
10565;SDS011;5331;48.148;16.326;2023-01-15T13:23:33;9.47;;;7.47;;
10565;SDS011;5331;48.148;16.326;2023-01-15T13:26:15;10.23;;;8.50;;
10565;SDS011;5331;48.148;16.326;2023-01-15T13:28:56;10.87;;;8.37;;
10565;SDS011;5331;48.148;16.326;2023-01-15T13:31:37;11.60;;;7.30;;
10565;SDS011;5331;48.148;16.326;2023-01-15T13:34:17;8.67;;;7.47;;
10565;SDS011;5331;48.148;16.326;2023-01-15T13:36:52;8.90;;;6.70;;
10565;SDS011;5331;48.148;16.326;2023-01-15T13:42:02;11.07;;;7.13;;
10565;SDS011;5331;48.148;16.326;2023-01-15T13:44:50;8.47;;;6.80;;
10565;SDS011;5331;48.148;16.326;2023-01-15T13:47:19;11.67;;;7.30;;
10565;SDS011;5331;48.148;16.326;2023-01-15T13:49:49;10.33;;;7.43;;
10565;SDS011;5331;48.148;16.326;2023-01-15T13:52:20;9.37;;;6.93;;
10565;SDS011;5331;48.148;16.326;2023-01-15T13:54:51;8.43;;;7.20;;
10565;SDS011;5331;48.148;16.326;2023-01-15T13:57:22;11.80;;;7.60;;
10565;SDS011;5331;48.148;16.326;2023-01-15T13:59:52;13.00;;;8.67;;
10565;SDS011;5331;48.148;16.326;2023-01-15T14:02:23;11.93;;;8.23;;
10565;SDS011;5331;48.148;16.326;2023-01-15T14:04:52;14.47;;;9.23;;
10565;SDS011;5331;48.148;16.326;2023-01-15T14:07:20;12.70;;;9.17;;
10565;SDS011;5331;48.148;16.326;2023-01-15T14:10:05;12.97;;;9.67;;
10565;SDS011;5331;48.148;16.326;2023-01-15T14:12:35;15.97;;;10.53;;
10565;SDS011;5331;48.148;16.326;2023-01-15T14:15:22;12.77;;;9.17;;
10565;SDS011;5331;48.148;16.326;2023-01-15T14:24:02;12.73;;;9.00;;
10565;SDS011;5331;48.148;16.326;2023-01-15T14:26:44;15.10;;;11.07;;
10565;SDS011;5331;48.148;16.326;2023-01-15T14:29:28;22.47;;;14.50;;
10565;SDS011;5331;48.148;16.326;2023-01-15T14:32:19;28.20;;;17.87;;
10565;SDS011;5331;48.148;16.326;2023-01-15T14:35:10;17.73;;;12.37;;
10565;SDS011;5331;48.148;16.326;2023-01-15T14:37:43;13.80;;;10.40;;
10565;SDS011;5331;48.148;16.326;2023-01-15T14:40:18;9.27;;;7.33;;
10565;SDS011;5331;48.148;16.326;2023-01-15T14:42:49;9.70;;;7.67;;
10565;SDS011;5331;48.148;16.326;2023-01-15T14:45:29;12.70;;;8.33;;
10565;SDS011;5331;48.148;16.326;2023-01-15T14:48:02;10.63;;;8.10;;
10565;SDS011;5331;48.148;16.326;2023-01-15T14:50:31;12.87;;;8.40;;
10565;SDS011;5331;48.148;16.326;2023-01-15T14:53:14;11.83;;;9.33;;
10565;SDS011;5331;48.148;16.326;2023-01-15T14:55:47;13.17;;;9.40;;
10565;SDS011;5331;48.148;16.326;2023-01-15T14:58:22;14.97;;;11.37;;
10565;SDS011;5331;48.148;16.326;2023-01-15T15:01:00;20.00;;;13.53;;
10565;SDS011;5331;48.148;16.326;2023-01-15T15:03:45;18.83;;;13.37;;
10565;SDS011;5331;48.148;16.326;2023-01-15T15:08:48;18.10;;;10.80;;
10565;SDS011;5331;48.148;16.326;2023-01-15T15:11:20;13.40;;;10.63;;
10565;SDS011;5331;48.148;16.326;2023-01-15T15:14:11;12.63;;;10.47;;
10565;SDS011;5331;48.148;16.326;2023-01-15T15:16:43;10.67;;;8.53;;
10565;SDS011;5331;48.148;16.326;2023-01-15T15:19:17;11.00;;;9.03;;
10565;SDS011;5331;48.148;16.326;2023-01-15T15:21:52;15.57;;;9.73;;
10565;SDS011;5331;48.148;16.326;2023-01-15T15:24:25;11.73;;;9.70;;
10565;SDS011;5331;48.148;16.326;2023-01-15T15:26:55;10.57;;;8.73;;
10565;SDS011;5331;48.148;16.326;2023-01-15T15:29:22;9.83;;;7.97;;
10565;SDS011;5331;48.148;16.326;2023-01-15T15:31:49;8.30;;;6.90;;